Observations for GUERNSEY AIRPORT, United Kingdom (EGJB)

EGJB 162350Z 36004KT 4000 VCFG MIFG FEW000 SCT004 13/13 Q1018   
EGJB 162250Z 35004KT 9999 FEW004 13/13 Q1018
EGJB 162150Z 34004KT 8000 NSC 13/13 Q1018   
EGJB 162050Z 35004KT 8000 NSC 14/13 Q1018   
EGJB 161950Z 36004KT CAVOK 16/13 Q1018  
EGJB 161920Z 01003KT CAVOK 17/12 Q1018  
EGJB 161850Z 36003KT CAVOK 17/12 Q1018  
EGJB 161820Z 01005KT 9999 FEW020 18/12 Q1018
EGJB 161750Z 03005KT 350V060 9999 FEW020 18/12 Q1018
EGJB 161720Z 03005KT 350V070 9999 FEW020 19/13 Q1018
EGJB 161650Z 36005KT 310V050 9999 FEW020 19/11 Q1018
EGJB 161620Z 01006KT 340V040 9999 FEW020 19/12 Q1019
EGJB 161550Z 02006KT 330V070 9999 FEW020 19/13 Q1019
EGJB 161520Z 36006KT 330V040 9999 FEW020 19/13 Q1019
EGJB 161450Z 01006KT 320V070 9999 FEW020 19/13 Q1019
EGJB 161420Z 01006KT 310V050 9999 FEW018 19/13 Q1019
EGJB 161350Z 04005KT 340V090 9999 FEW018 19/14 Q1019
EGJB 161320Z 03005KT 340V090 9999 FEW018 18/14 Q1019
EGJB 161250Z 06005KT 360V130 9999 FEW021 19/13 Q1019
EGJB 161220Z 09006KT 050V140 9999 FEW020 20/13 Q1019
EGJB 161150Z 07006KT 020V130 9999 FEW018 20/13 Q1019
EGJB 161120Z 06006KT 030V100 9999 FEW016 20/13 Q1019
EGJB 161050Z 08006KT 030V120 9999 FEW015 19/13 Q1019
EGJB 161020Z 08007KT 010V120 9999 FEW012 19/13 Q1020
EGJB 160950Z 09007KT 040V110 9999 FEW010 19/14 Q1020
EGJB 160920Z 07007KT 040V100 9999 FEW007 18/14 Q1020
EGJB 160850Z 07007KT 040V100 9999 FEW007 17/14 Q1020
EGJB 160820Z 05006KT 010V080 9999 FEW006 SCT010 17/14 Q1020 
EGJB 160750Z 07005KT 360V100 9999 FEW006 SCT009 16/14 Q1020 
EGJB 160720Z 07006KT 040V100 9999 FEW007 16/15 Q1020
EGJB 160650Z 06005KT 030V100 9999 FEW007 16/14 Q1020
EGJB 160620Z 03004KT 9999 FEW005 SCT007 14/14 Q1020 
EGJB 160550Z 03004KT 9999 FEW005 13/13 Q1020
EGJB 160520Z 04004KT 9999 FEW007 13/12 Q1020
EGJB 160450Z 04003KT 9999 FEW015 13/12 Q1020
EGJB 160420Z 05004KT 9999 FEW015 13/12 Q1020
EGJB 160350Z 06004KT 9999 FEW015 12/11 Q1020
EGJB 160320Z 07004KT 9999 FEW018 12/12 Q1020
EGJB 160250Z 08005KT CAVOK 12/11 Q1020  
EGJB 160150Z 08005KT CAVOK 12/11 Q1020  
EGJB 160050Z 08005KT CAVOK 12/10 Q1021  
EGJB 152350Z 10005KT CAVOK 12/11 Q1021